createdAt,value
2023-01-07T00:01:53.244Z,86.54
2023-01-07T00:07:13.962Z,86.66
2023-01-07T00:12:34.855Z,86.82
2023-01-07T00:17:55.770Z,86.95
2023-01-07T00:23:16.567Z,86.87
2023-01-07T00:28:40.088Z,87.20
2023-01-07T00:34:00.557Z,87.17
2023-01-07T00:39:21.145Z,87.04
2023-01-07T00:44:41.765Z,86.81
2023-01-07T00:50:02.452Z,86.96
2023-01-07T00:55:24.159Z,87.03
2023-01-07T01:00:45.667Z,86.95
2023-01-07T01:06:10.899Z,87.18
2023-01-07T01:11:31.260Z,87.31
2023-01-07T01:16:52.083Z,87.03
2023-01-07T01:22:12.733Z,87.03
2023-01-07T01:27:33.349Z,86.81
2023-01-07T01:32:53.916Z,86.83
2023-01-07T01:38:14.637Z,86.56
2023-01-07T01:43:41.338Z,86.55
2023-01-07T01:49:22.144Z,86.45
2023-01-07T01:54:48.202Z,86.72
2023-01-07T02:00:10.311Z,86.61
2023-01-07T02:05:39.842Z,86.56
2023-01-07T02:11:38.365Z,86.68
2023-01-07T02:17:07.794Z,87.05
2023-01-07T02:23:02.822Z,87.27
2023-01-07T02:28:47.185Z,87.27
2023-01-07T02:34:19.577Z,87.20
2023-01-07T02:39:57.967Z,86.97
2023-01-07T02:45:30.723Z,87.28
2023-01-07T02:50:52.063Z,87.46
2023-01-07T02:56:21.229Z,87.40
2023-01-07T03:02:03.893Z,87.63
2023-01-07T03:07:40.243Z,87.42
2023-01-07T03:13:07.933Z,87.39
2023-01-07T03:18:37.837Z,87.30
2023-01-07T03:23:58.843Z,87.34
2023-01-07T03:29:20.624Z,87.17
2023-01-07T03:34:42.624Z,87.25
2023-01-07T03:40:09.773Z,87.10
2023-01-07T03:45:32.158Z,87.05
2023-01-07T03:50:54.103Z,86.97
2023-01-07T03:56:14.671Z,87.35
2023-01-07T04:01:35.695Z,87.11
2023-01-07T04:06:56.504Z,87.48
2023-01-07T04:12:18.571Z,87.56
2023-01-07T04:17:39.313Z,87.48
2023-01-07T04:23:00.159Z,87.48
2023-01-07T04:28:20.559Z,87.64
2023-01-07T04:33:41.332Z,87.57
2023-01-07T04:39:02.271Z,87.97
2023-01-07T04:44:23.428Z,87.82
2023-01-07T04:49:43.810Z,87.79
2023-01-07T04:55:06.027Z,88.01
2023-01-07T05:00:26.701Z,88.03
2023-01-07T05:05:48.936Z,88.11
2023-01-07T05:11:10.579Z,88.20
2023-01-07T05:16:34.996Z,88.27
2023-01-07T05:22:00.961Z,88.25
2023-01-07T05:27:22.611Z,88.43
2023-01-07T05:32:43.594Z,88.35
2023-01-07T05:38:04.526Z,88.06
2023-01-07T05:43:25.166Z,87.78
2023-01-07T05:48:45.902Z,87.64
2023-01-07T05:54:07.310Z,87.84
2023-01-07T05:59:28.038Z,88.02
2023-01-07T06:04:48.983Z,88.13
2023-01-07T06:10:11.106Z,88.30
2023-01-07T06:15:32.031Z,88.30
2023-01-07T06:20:52.514Z,88.57
2023-01-07T06:26:13.215Z,88.70
2023-01-07T06:31:34.218Z,88.87
2023-01-07T06:36:55.133Z,88.96
2023-01-07T06:42:15.608Z,89.07
2023-01-07T06:47:36.428Z,89.00
2023-01-07T06:52:57.161Z,88.96
2023-01-07T06:58:18.822Z,89.25
2023-01-07T07:03:39.726Z,89.04
2023-01-07T07:09:00.713Z,89.37
2023-01-07T07:14:21.159Z,89.39
2023-01-07T07:19:41.912Z,89.08
2023-01-07T07:25:02.430Z,89.33
2023-01-07T07:30:22.981Z,89.61
2023-01-07T07:36:04.645Z,89.64
2023-01-07T07:41:25.046Z,89.53
2023-01-07T07:46:48.403Z,89.78
2023-01-07T07:52:08.934Z,89.70
2023-01-07T07:57:29.311Z,89.80
2023-01-07T08:02:50.182Z,89.70
2023-01-07T08:08:12.941Z,89.56
2023-01-07T08:13:34.828Z,89.62
2023-01-07T08:18:55.704Z,89.55
2023-01-07T08:24:16.440Z,89.52
2023-01-07T08:29:37.339Z,89.83
2023-01-07T08:34:58.082Z,89.87
2023-01-07T08:40:18.873Z,90.19
2023-01-07T08:45:39.474Z,90.28
2023-01-07T08:51:00.399Z,90.44
2023-01-07T08:56:22.669Z,89.95
2023-01-07T09:01:44.828Z,89.91
2023-01-07T09:07:05.718Z,90.04
2023-01-07T09:12:26.399Z,90.08
2023-01-07T09:17:47.260Z,89.89
2023-01-07T09:23:08.078Z,89.88
2023-01-07T09:28:28.936Z,89.86
2023-01-07T09:33:49.435Z,89.63
2023-01-07T09:39:11.732Z,88.60
2023-01-07T09:44:57.104Z,88.63
2023-01-07T09:50:47.510Z,88.62
2023-01-07T09:56:18.795Z,88.32
2023-01-07T10:01:58.064Z,88.13
2023-01-07T10:07:33.301Z,88.70
2023-01-07T10:13:08.979Z,88.31
2023-01-07T10:18:59.236Z,88.22
2023-01-07T10:24:33.119Z,88.53
2023-01-07T10:29:56.732Z,88.31
2023-01-07T10:35:19.163Z,88.64
2023-01-07T10:40:49.594Z,88.13
2023-01-07T10:46:38.467Z,87.20
2023-01-07T10:52:20.013Z,86.97
2023-01-07T10:57:41.411Z,87.70
2023-01-07T11:03:03.417Z,87.84
2023-01-07T11:08:40.494Z,87.59
2023-01-07T11:14:10.796Z,87.05
2023-01-07T11:19:57.650Z,86.63
2023-01-07T11:25:24.215Z,86.40
2023-01-07T11:30:44.802Z,86.06
2023-01-07T11:36:06.407Z,85.38
2023-01-07T11:41:26.859Z,85.46
2023-01-07T11:46:47.684Z,86.21
2023-01-07T11:52:20.228Z,86.15
2023-01-07T11:57:40.751Z,86.49
2023-01-07T12:03:11.182Z,86.27
2023-01-07T12:08:32.124Z,86.40
2023-01-07T12:13:55.253Z,86.41
2023-01-07T12:19:38.499Z,86.29
2023-01-07T12:25:33.745Z,86.47
2023-01-07T12:31:23.064Z,86.62
2023-01-07T12:36:52.356Z,86.70
2023-01-07T12:42:19.360Z,86.49
2023-01-07T12:47:46.331Z,86.47
2023-01-07T12:53:20.961Z,86.02
2023-01-07T12:58:51.966Z,85.19
2023-01-07T13:04:40.456Z,84.29
2023-01-07T13:10:05.994Z,83.48
2023-01-07T13:15:29.203Z,83.46
2023-01-07T13:21:09.896Z,83.57
2023-01-07T13:26:43.781Z,83.87
2023-01-07T13:32:18.193Z,84.44
2023-01-07T13:38:10.885Z,84.33
2023-01-07T13:44:01.349Z,84.75
2023-01-07T13:49:29.785Z,85.37
2023-01-07T13:54:53.521Z,85.30
2023-01-07T14:00:45.539Z,85.68
2023-01-07T14:06:21.695Z,85.74
2023-01-07T14:12:06.299Z,85.74
2023-01-07T14:17:45.970Z,85.76
2023-01-07T14:23:29.520Z,85.87
2023-01-07T14:29:00.483Z,85.92
2023-01-07T14:34:25.365Z,85.97
2023-01-07T14:39:46.913Z,86.09
2023-01-07T14:45:41.577Z,86.47
2023-01-07T14:51:29.095Z,86.50
2023-01-07T14:57:15.505Z,86.31
2023-01-07T15:03:05.327Z,86.56
2023-01-07T15:08:48.018Z,86.48
2023-01-07T15:14:36.896Z,86.74
2023-01-07T15:19:57.987Z,86.76
2023-01-07T15:25:43.484Z,86.62
2023-01-07T15:31:16.421Z,86.73
2023-01-07T15:36:49.772Z,86.50
2023-01-07T15:42:20.649Z,86.67
2023-01-07T15:47:41.970Z,86.45
2023-01-07T15:53:17.265Z,86.51
2023-01-07T15:58:48.565Z,86.77
2023-01-07T16:04:24.488Z,86.81
2023-01-07T16:09:45.129Z,86.93
2023-01-07T16:15:25.776Z,86.95
2023-01-07T16:20:55.226Z,86.61
2023-01-07T16:26:34.669Z,86.74
2023-01-07T16:31:56.563Z,86.64
2023-01-07T16:37:17.653Z,86.69
2023-01-07T16:42:38.475Z,86.42
2023-01-07T16:48:17.212Z,85.92
2023-01-07T16:53:38.844Z,86.04
2023-01-07T16:59:01.368Z,85.76
2023-01-07T17:04:30.253Z,84.52
2023-01-07T17:09:55.287Z,83.78
2023-01-07T17:15:43.445Z,84.28
2023-01-07T17:21:04.055Z,84.46
2023-01-07T17:26:27.185Z,84.29
2023-01-07T17:31:48.210Z,83.28
2023-01-07T17:37:18.144Z,82.97
2023-01-07T17:42:58.036Z,82.85
2023-01-07T17:48:18.373Z,83.14
2023-01-07T17:53:45.853Z,82.47
2023-01-07T17:59:14.205Z,82.36
2023-01-07T18:04:34.887Z,82.17
2023-01-07T18:09:55.182Z,82.07
2023-01-07T18:15:23.002Z,81.90
2023-01-07T18:20:43.707Z,81.56
2023-01-07T18:26:07.715Z,81.60
2023-01-07T18:31:28.350Z,81.43
2023-01-07T18:36:49.173Z,81.25
2023-01-07T18:42:09.443Z,81.09
2023-01-07T18:47:29.954Z,80.74
2023-01-07T18:52:50.739Z,81.83
2023-01-07T18:58:13.798Z,81.83
2023-01-07T19:03:35.093Z,81.02
2023-01-07T19:08:56.423Z,81.51
2023-01-07T19:14:16.833Z,81.86
2023-01-07T19:19:47.998Z,81.96
2023-01-07T19:25:09.946Z,81.09
2023-01-07T19:30:30.564Z,81.03
2023-01-07T19:36:07.710Z,80.96
2023-01-07T19:41:28.394Z,80.87
2023-01-07T19:46:49.112Z,80.65
2023-01-07T19:52:09.723Z,81.11
2023-01-07T19:57:30.700Z,81.34
2023-01-07T20:02:51.393Z,81.11
2023-01-07T20:08:11.756Z,81.17
2023-01-07T20:13:35.968Z,81.70
2023-01-07T20:18:56.794Z,82.34
2023-01-07T20:24:17.099Z,83.24
2023-01-07T20:29:38.642Z,83.50
2023-01-07T20:34:59.120Z,82.76
2023-01-07T20:40:19.754Z,83.36
2023-01-07T20:45:40.183Z,83.53
2023-01-07T20:51:07.706Z,83.93
2023-01-07T20:56:32.200Z,83.99
2023-01-07T21:01:53.204Z,83.54
2023-01-07T21:07:13.693Z,83.56
2023-01-07T21:12:34.218Z,83.03
2023-01-07T21:17:54.780Z,83.73
2023-01-07T21:23:15.154Z,83.97
2023-01-07T21:28:36.228Z,84.16
2023-01-07T21:33:57.912Z,83.37
2023-01-07T21:39:18.434Z,83.40
2023-01-07T21:44:39.353Z,83.29
2023-01-07T21:49:59.814Z,83.35
2023-01-07T21:55:20.285Z,83.58
2023-01-07T22:00:40.678Z,83.71
2023-01-07T22:06:04.533Z,84.74
2023-01-07T22:11:25.990Z,84.16
2023-01-07T22:16:48.927Z,84.27
2023-01-07T22:22:09.904Z,83.93
2023-01-07T22:27:30.195Z,84.45
2023-01-07T22:32:50.632Z,84.70
2023-01-07T22:38:14.205Z,84.97
2023-01-07T22:43:36.468Z,85.60
2023-01-07T22:48:58.415Z,85.65
2023-01-07T22:54:19.189Z,86.05
2023-01-07T22:59:39.785Z,86.42
2023-01-07T23:05:01.181Z,86.40
2023-01-07T23:10:21.932Z,86.76
2023-01-07T23:15:42.136Z,86.92
2023-01-07T23:21:04.216Z,86.83
2023-01-07T23:26:24.375Z,87.12
2023-01-07T23:31:45.373Z,87.17
2023-01-07T23:37:06.203Z,87.15
2023-01-07T23:42:26.974Z,87.02
2023-01-07T23:47:47.584Z,86.93
2023-01-07T23:53:08.453Z,86.65
2023-01-07T23:58:29.959Z,86.58
